createdAt,value
2022-12-16T00:00:27.707Z,48.78
2022-12-16T00:02:29.430Z,48.47
2022-12-16T00:04:31.032Z,49.20
2022-12-16T00:06:34.190Z,46.78
2022-12-16T00:08:38.203Z,49.63
2022-12-16T00:10:57.412Z,47.75
2022-12-16T00:12:59.290Z,56.13
2022-12-16T00:15:00.867Z,63.22
2022-12-16T00:17:02.537Z,57.85
2022-12-16T00:19:04.256Z,63.35
2022-12-16T00:21:06.686Z,76.60
2022-12-16T00:23:08.308Z,65.28
2022-12-16T00:25:09.930Z,70.53
2022-12-16T00:27:11.494Z,66.85
2022-12-16T00:29:13.091Z,63.03
2022-12-16T00:31:14.787Z,60.55
2022-12-16T00:33:16.871Z,57.03
2022-12-16T00:35:18.504Z,59.67
2022-12-16T00:37:20.338Z,54.75
2022-12-16T00:39:21.969Z,55.78
2022-12-16T00:41:23.612Z,55.22
2022-12-16T00:43:25.317Z,54.13
2022-12-16T00:45:27.550Z,60.17
2022-12-16T00:47:29.198Z,62.58
2022-12-16T00:49:30.993Z,63.17
2022-12-16T00:51:32.632Z,85.70
2022-12-16T00:53:36.128Z,75.28
2022-12-16T00:55:37.939Z,82.45
2022-12-16T00:57:39.770Z,87.25
2022-12-16T00:59:41.428Z,84.40
2022-12-16T01:01:43.640Z,88.75
2022-12-16T01:03:45.520Z,86.43
2022-12-16T01:05:47.212Z,84.47
2022-12-16T01:07:48.882Z,92.32
2022-12-16T01:09:50.502Z,97.68
2022-12-16T01:11:53.485Z,98.37
2022-12-16T01:13:56.609Z,100.40
2022-12-16T01:16:01.753Z,94.88
2022-12-16T01:18:03.346Z,95.50
2022-12-16T01:20:05.670Z,98.88
2022-12-16T01:22:07.374Z,93.72
2022-12-16T01:24:11.123Z,95.97
2022-12-16T01:26:16.665Z,97.22
2022-12-16T01:28:18.551Z,92.40
2022-12-16T01:30:20.439Z,94.75
2022-12-16T01:32:22.618Z,95.43
2022-12-16T01:34:24.734Z,99.72
2022-12-16T01:36:26.606Z,107.18
2022-12-16T01:38:28.866Z,96.32
2022-12-16T01:40:30.735Z,104.80
2022-12-16T01:42:33.703Z,96.28
2022-12-16T01:44:35.370Z,94.47
2022-12-16T01:46:38.660Z,93.45
2022-12-16T01:48:58.985Z,97.00
2022-12-16T01:51:07.762Z,94.68
2022-12-16T01:53:10.190Z,91.90
2022-12-16T01:55:25.154Z,92.18
2022-12-16T01:57:32.349Z,78.55
2022-12-16T01:59:36.290Z,84.53
2022-12-16T02:03:39.983Z,83.50
2022-12-16T02:05:43.100Z,75.82
2022-12-16T02:07:44.842Z,85.15
2022-12-16T02:09:46.587Z,75.63
2022-12-16T02:12:30.236Z,75.40
2022-12-16T02:14:38.063Z,69.03
2022-12-16T02:16:49.203Z,69.25
2022-12-16T02:18:57.004Z,64.47
2022-12-16T02:21:23.492Z,64.85
2022-12-16T02:23:34.672Z,61.15
2022-12-16T02:25:54.800Z,58.92
2022-12-16T02:28:09.303Z,59.95
2022-12-16T02:30:19.738Z,54.80
2022-12-16T02:32:21.342Z,58.55
2022-12-16T02:34:50.670Z,56.63
2022-12-16T02:37:16.412Z,54.83
2022-12-16T02:39:23.142Z,55.50
2022-12-16T02:41:43.729Z,53.25
2022-12-16T02:44:05.074Z,58.22
2022-12-16T02:46:07.758Z,56.08
2022-12-16T02:48:10.087Z,57.67
2022-12-16T02:50:18.957Z,53.58
2022-12-16T02:52:31.802Z,40.88
2022-12-16T02:54:33.466Z,39.95
2022-12-16T02:56:59.259Z,35.03
2022-12-16T02:59:18.572Z,31.75
2022-12-16T03:01:27.587Z,32.28
2022-12-16T03:03:41.077Z,28.85
2022-12-16T03:05:48.413Z,28.63
2022-12-16T03:07:51.499Z,30.25
2022-12-16T03:09:54.104Z,32.28
2022-12-16T03:11:57.058Z,31.15
2022-12-16T03:14:00.416Z,29.58
2022-12-16T03:16:03.901Z,29.85
2022-12-16T03:18:08.687Z,29.40
2022-12-16T03:20:15.363Z,29.02
2022-12-16T03:22:20.593Z,31.42
2022-12-16T03:24:22.471Z,31.58
2022-12-16T03:26:30.979Z,32.20
2022-12-16T03:28:46.234Z,33.28
2022-12-16T03:30:55.793Z,34.53
2022-12-16T03:33:23.040Z,33.58
2022-12-16T03:35:35.928Z,36.85
2022-12-16T03:37:38.724Z,35.65
2022-12-16T03:39:44.348Z,37.72
2022-12-16T03:41:47.668Z,34.47
2022-12-16T03:43:49.809Z,33.10
2022-12-16T03:45:53.690Z,38.55
2022-12-16T03:49:58.807Z,41.25
2022-12-16T03:52:00.472Z,41.83
2022-12-16T03:54:02.283Z,43.58
2022-12-16T03:56:04.145Z,41.85
2022-12-16T03:58:05.822Z,37.53
2022-12-16T04:00:08.226Z,36.65
2022-12-16T04:02:10.246Z,36.40
2022-12-16T04:04:12.285Z,34.83
2022-12-16T04:06:18.596Z,35.90
2022-12-16T04:08:20.338Z,35.95
2022-12-16T04:10:41.886Z,34.33
2022-12-16T04:13:02.374Z,36.35
2022-12-16T04:15:23.769Z,33.83
2022-12-16T04:17:44.318Z,35.65
2022-12-16T04:20:04.859Z,33.97
2022-12-16T04:22:32.804Z,32.80
2022-12-16T04:24:35.186Z,34.33
2022-12-16T04:26:56.884Z,36.45
2022-12-16T04:28:58.533Z,33.22
2022-12-16T04:31:00.340Z,33.63
2022-12-16T04:33:30.379Z,33.53
2022-12-16T04:35:51.172Z,33.03
2022-12-16T04:38:11.197Z,33.45
2022-12-16T04:40:31.701Z,31.40
2022-12-16T04:42:52.041Z,30.70
2022-12-16T04:45:12.728Z,30.13
2022-12-16T04:47:33.092Z,29.23
2022-12-16T04:49:53.457Z,29.83
2022-12-16T04:52:13.126Z,27.67
2022-12-16T04:54:32.897Z,28.73
2022-12-16T04:56:53.008Z,29.60
2022-12-16T04:59:13.322Z,29.58
2022-12-16T05:01:33.348Z,29.63
2022-12-16T05:03:53.919Z,29.65
2022-12-16T05:06:14.426Z,30.73
2022-12-16T05:08:34.813Z,30.27
2022-12-16T05:10:54.802Z,29.83
2022-12-16T05:13:15.176Z,28.38
2022-12-16T05:15:35.618Z,29.80
2022-12-16T05:17:55.898Z,29.50
2022-12-16T05:20:15.936Z,29.10
2022-12-16T05:22:36.285Z,29.13
2022-12-16T05:24:56.544Z,29.58
2022-12-16T05:27:16.461Z,30.58
2022-12-16T05:29:36.775Z,30.35
2022-12-16T05:31:57.183Z,34.10
2022-12-16T05:34:17.903Z,33.17
2022-12-16T05:36:38.326Z,33.67
2022-12-16T05:38:58.189Z,35.35
2022-12-16T05:41:18.323Z,36.67
2022-12-16T05:43:38.478Z,34.33
2022-12-16T05:45:59.460Z,36.33
2022-12-16T05:48:19.671Z,37.75
2022-12-16T05:50:40.237Z,39.72
2022-12-16T05:53:00.193Z,36.85
2022-12-16T05:55:20.393Z,33.47
2022-12-16T05:57:40.676Z,32.78
2022-12-16T06:00:01.109Z,33.97
2022-12-16T06:02:21.220Z,34.53
2022-12-16T06:04:41.204Z,33.33
2022-12-16T06:07:01.170Z,34.35
2022-12-16T06:09:21.820Z,34.10
2022-12-16T06:11:41.850Z,34.45
2022-12-16T06:14:02.038Z,33.53
2022-12-16T06:16:22.485Z,35.35
2022-12-16T06:18:42.366Z,32.70
2022-12-16T06:21:02.671Z,32.40
2022-12-16T06:23:25.563Z,29.38
2022-12-16T06:25:46.242Z,29.58
2022-12-16T06:28:12.617Z,29.50
2022-12-16T06:30:33.046Z,28.80
2022-12-16T06:32:53.372Z,29.85
2022-12-16T06:35:13.813Z,29.55
2022-12-16T06:37:34.205Z,31.48
2022-12-16T06:39:54.629Z,30.17
2022-12-16T06:42:14.494Z,30.88
2022-12-16T06:44:34.776Z,30.65
2022-12-16T06:46:54.703Z,32.10
2022-12-16T06:49:14.546Z,31.65
2022-12-16T06:51:48.633Z,30.73
2022-12-16T06:54:09.167Z,29.52
2022-12-16T06:56:29.502Z,32.70
2022-12-16T06:58:50.091Z,32.80
2022-12-16T07:01:10.706Z,32.95
2022-12-16T07:03:35.542Z,36.63
2022-12-16T07:05:56.197Z,35.78
2022-12-16T07:08:16.597Z,35.55
2022-12-16T07:10:36.909Z,35.38
2022-12-16T07:12:57.226Z,37.63
2022-12-16T07:15:17.862Z,39.35
2022-12-16T07:17:38.072Z,41.72
2022-12-16T07:19:58.505Z,39.80
2022-12-16T07:22:18.915Z,39.75
2022-12-16T07:24:38.772Z,41.28
2022-12-16T07:26:58.692Z,44.05
2022-12-16T07:29:19.007Z,39.92
2022-12-16T07:31:39.517Z,42.22
2022-12-16T07:34:00.130Z,40.33
2022-12-16T07:36:20.653Z,41.40
2022-12-16T07:38:40.853Z,37.75
2022-12-16T07:41:01.446Z,37.38
2022-12-16T07:43:21.405Z,34.22
2022-12-16T07:45:45.156Z,36.30
2022-12-16T07:48:07.530Z,35.50
2022-12-16T07:50:28.983Z,33.85
2022-12-16T07:52:48.999Z,35.28
2022-12-16T07:55:23.266Z,33.55
2022-12-16T07:57:43.273Z,33.35
2022-12-16T08:00:03.611Z,33.17
2022-12-16T08:02:24.125Z,34.63
2022-12-16T08:04:44.507Z,32.72
2022-12-16T08:07:05.109Z,32.47
2022-12-16T08:09:25.176Z,29.55
2022-12-16T08:11:45.064Z,33.60
2022-12-16T08:14:05.177Z,32.85
2022-12-16T08:16:25.787Z,33.38
2022-12-16T08:18:46.068Z,32.58
2022-12-16T08:21:06.107Z,30.02
2022-12-16T08:23:26.002Z,29.83
2022-12-16T08:25:46.435Z,30.73
2022-12-16T08:28:12.806Z,32.88
2022-12-16T08:30:37.917Z,32.72
2022-12-16T08:33:00.711Z,32.42
2022-12-16T08:35:25.692Z,33.13
2022-12-16T08:37:45.584Z,35.58
2022-12-16T08:40:34.776Z,38.53
2022-12-16T08:42:57.795Z,34.13
2022-12-16T08:45:18.244Z,33.00
2022-12-16T08:47:38.413Z,32.13
2022-12-16T08:50:01.640Z,30.30
2022-12-16T08:52:23.008Z,31.85
2022-12-16T08:54:43.016Z,30.42
2022-12-16T08:57:03.291Z,26.92
2022-12-16T08:59:23.824Z,25.95
2022-12-16T09:01:43.916Z,26.10
2022-12-16T09:04:04.204Z,27.73
2022-12-16T09:06:24.631Z,24.67
2022-12-16T09:08:45.021Z,25.25
2022-12-16T09:11:05.247Z,25.58
2022-12-16T09:13:31.258Z,24.23
2022-12-16T09:15:51.845Z,25.45
2022-12-16T09:18:13.487Z,26.45
2022-12-16T09:20:33.734Z,27.00
2022-12-16T09:22:54.205Z,26.83
2022-12-16T09:25:15.261Z,28.60
2022-12-16T09:27:35.069Z,30.25
2022-12-16T09:29:55.456Z,31.35
2022-12-16T09:32:16.086Z,30.65
2022-12-16T09:34:36.465Z,31.17
2022-12-16T09:36:56.935Z,29.35
2022-12-16T09:39:17.073Z,28.77
2022-12-16T09:41:41.209Z,32.25
2022-12-16T09:44:07.775Z,30.67
2022-12-16T09:46:48.264Z,29.80
2022-12-16T09:50:02.212Z,30.73
2022-12-16T09:52:23.278Z,28.60
2022-12-16T09:54:45.847Z,31.77
2022-12-16T09:57:06.663Z,29.05
2022-12-16T09:59:32.842Z,30.27
2022-12-16T10:01:55.601Z,29.23
2022-12-16T10:04:16.617Z,31.08
2022-12-16T10:07:03.418Z,32.25
2022-12-16T10:09:39.986Z,32.95
2022-12-16T10:12:29.383Z,30.60
2022-12-16T10:14:56.148Z,34.55
2022-12-16T10:17:31.708Z,36.20
2022-12-16T10:20:33.391Z,49.10
2022-12-16T10:23:23.160Z,45.85
2022-12-16T10:25:47.943Z,45.83
2022-12-16T10:28:08.639Z,42.00
2022-12-16T10:30:31.677Z,41.97
2022-12-16T10:32:54.095Z,36.53
2022-12-16T10:35:14.225Z,37.10
2022-12-16T10:37:57.773Z,37.72
2022-12-16T10:40:18.931Z,33.08
2022-12-16T10:42:48.084Z,32.45
2022-12-16T10:45:14.380Z,32.65
2022-12-16T10:47:34.458Z,32.30
2022-12-16T10:49:55.065Z,33.55
2022-12-16T10:52:15.693Z,34.22
2022-12-16T10:54:38.751Z,34.63
2022-12-16T10:57:28.308Z,33.95
2022-12-16T10:59:54.133Z,33.85
2022-12-16T11:02:15.651Z,37.25
2022-12-16T11:04:49.726Z,36.50
2022-12-16T11:07:09.666Z,35.00
2022-12-16T11:09:41.905Z,34.72
2022-12-16T11:12:01.805Z,33.08
2022-12-16T11:14:34.961Z,35.58
2022-12-16T11:16:55.372Z,35.85
2022-12-16T11:19:16.707Z,34.65
2022-12-16T11:21:39.082Z,34.20
2022-12-16T11:23:59.572Z,34.05
2022-12-16T11:26:37.522Z,32.45
2022-12-16T11:28:58.132Z,33.00
2022-12-16T11:31:25.276Z,33.05
2022-12-16T11:33:47.045Z,33.10
2022-12-16T11:36:11.985Z,34.47
2022-12-16T11:39:02.631Z,33.72
2022-12-16T11:41:22.896Z,33.13
2022-12-16T11:43:44.132Z,33.38
2022-12-16T11:46:04.601Z,35.33
2022-12-16T11:48:31.542Z,33.65
2022-12-16T11:50:55.435Z,35.15
2022-12-16T11:53:16.203Z,32.05
2022-12-16T11:56:04.125Z,30.13
2022-12-16T11:58:21.605Z,31.52
2022-12-16T12:00:42.285Z,29.67
2022-12-16T12:03:25.168Z,30.23
2022-12-16T12:06:15.126Z,29.73
2022-12-16T12:08:48.307Z,30.10
2022-12-16T12:11:30.887Z,29.20
2022-12-16T12:14:09.975Z,29.98
2022-12-16T12:17:03.840Z,28.10
2022-12-16T12:20:05.517Z,28.73
2022-12-16T12:22:53.950Z,29.30
2022-12-16T12:25:29.129Z,27.27
2022-12-16T12:28:08.259Z,27.70
2022-12-16T12:30:38.529Z,26.88
2022-12-16T12:33:52.371Z,27.80
2022-12-16T12:36:38.473Z,27.08
2022-12-16T12:39:33.788Z,27.15
2022-12-16T12:42:23.204Z,25.05
2022-12-16T12:44:49.078Z,28.13
2022-12-16T12:47:29.237Z,26.50
2022-12-16T12:50:10.369Z,26.67
2022-12-16T12:52:52.055Z,24.58
2022-12-16T12:55:49.133Z,26.58
2022-12-16T12:58:10.835Z,27.00
2022-12-16T13:00:39.979Z,24.77
2022-12-16T13:03:11.142Z,25.02
2022-12-16T13:05:32.769Z,27.48
2022-12-16T13:08:00.628Z,27.80
2022-12-16T13:10:39.382Z,27.40
2022-12-16T13:12:59.894Z,26.27
2022-12-16T13:15:27.448Z,26.33
2022-12-16T13:17:47.293Z,26.63
2022-12-16T13:20:14.960Z,27.73
2022-12-16T13:23:04.983Z,27.02
2022-12-16T13:25:49.376Z,27.48
2022-12-16T13:28:14.816Z,28.17
2022-12-16T13:30:34.991Z,27.48
2022-12-16T13:32:56.398Z,27.77
2022-12-16T13:35:21.121Z,28.33
2022-12-16T13:37:43.617Z,26.27
2022-12-16T13:40:18.652Z,28.55
2022-12-16T13:45:18.557Z,26.80
2022-12-16T13:48:10.977Z,28.83
2022-12-16T13:50:59.924Z,25.45
2022-12-16T13:53:22.527Z,25.48
2022-12-16T13:55:54.841Z,25.45
2022-12-16T13:58:21.709Z,26.98
2022-12-16T14:00:44.345Z,27.38
2022-12-16T14:03:04.927Z,23.80
2022-12-16T14:05:38.835Z,25.40
2022-12-16T14:07:59.696Z,25.17
2022-12-16T14:10:20.016Z,24.25
2022-12-16T14:13:02.093Z,23.23
2022-12-16T14:15:43.292Z,23.45
2022-12-16T14:18:18.687Z,22.27
2022-12-16T14:21:00.591Z,24.10
2022-12-16T14:23:57.290Z,24.00
2022-12-16T14:26:17.433Z,24.60
2022-12-16T14:28:52.416Z,25.17
2022-12-16T14:33:47.609Z,29.83
2022-12-16T14:36:08.972Z,29.30
2022-12-16T14:38:48.612Z,28.15
2022-12-16T14:41:09.972Z,31.40
2022-12-16T14:43:47.997Z,29.15
2022-12-16T14:46:08.830Z,28.67
2022-12-16T14:48:53.399Z,29.48
2022-12-16T14:51:13.660Z,30.05
2022-12-16T14:53:42.520Z,30.23
2022-12-16T14:56:02.782Z,30.35
2022-12-16T14:58:28.938Z,29.75
2022-12-16T15:00:49.261Z,29.77
2022-12-16T15:03:10.139Z,30.90
2022-12-16T15:05:30.922Z,30.42
2022-12-16T15:07:54.716Z,29.60
2022-12-16T15:10:16.637Z,29.58
2022-12-16T15:12:39.746Z,28.00
2022-12-16T15:15:04.656Z,28.35
2022-12-16T15:17:24.794Z,26.95
2022-12-16T15:19:45.055Z,27.98
2022-12-16T15:22:06.484Z,29.77
2022-12-16T15:24:45.250Z,29.15
2022-12-16T15:27:05.260Z,27.83
2022-12-16T15:29:48.578Z,30.27
2022-12-16T15:32:11.786Z,30.27
2022-12-16T15:34:47.401Z,29.65
2022-12-16T15:37:07.866Z,34.58
2022-12-16T15:39:45.793Z,33.17
2022-12-16T15:42:13.726Z,38.58
2022-12-16T15:44:44.170Z,41.35
2022-12-16T15:47:06.345Z,42.17
2022-12-16T15:49:41.123Z,44.22
2022-12-16T15:52:04.544Z,59.95
2022-12-16T15:54:24.840Z,58.65
2022-12-16T15:57:05.473Z,57.65
2022-12-16T15:59:43.443Z,56.63
2022-12-16T16:02:05.281Z,41.55
2022-12-16T16:04:54.940Z,49.80
2022-12-16T16:07:15.340Z,45.67
2022-12-16T16:09:41.015Z,41.25
2022-12-16T16:12:01.485Z,35.00
2022-12-16T16:14:21.606Z,39.72
2022-12-16T16:16:42.098Z,44.80
2022-12-16T16:19:02.463Z,44.97
2022-12-16T16:21:22.950Z,43.25
2022-12-16T16:23:42.821Z,41.72
2022-12-16T16:26:04.353Z,46.08
2022-12-16T16:28:24.536Z,50.03
2022-12-16T16:30:44.768Z,45.55
2022-12-16T16:33:05.274Z,41.53
2022-12-16T16:35:25.772Z,44.13
2022-12-16T16:37:46.305Z,43.83
2022-12-16T16:40:06.759Z,41.85
2022-12-16T16:42:28.830Z,46.28
2022-12-16T16:44:49.366Z,40.92
2022-12-16T16:47:09.703Z,40.97
2022-12-16T16:49:31.468Z,40.22
2022-12-16T16:51:51.342Z,42.50
2022-12-16T16:54:14.522Z,40.55
2022-12-16T16:56:34.866Z,40.83
2022-12-16T16:58:55.170Z,38.80
2022-12-16T17:01:15.876Z,39.40
2022-12-16T17:03:36.929Z,37.42
2022-12-16T17:05:57.861Z,38.65
2022-12-16T17:08:18.170Z,36.95
2022-12-16T17:10:38.068Z,34.97
2022-12-16T17:13:04.435Z,34.42
2022-12-16T17:15:43.013Z,40.50
2022-12-16T17:18:03.355Z,35.95
2022-12-16T17:20:23.809Z,39.10
2022-12-16T17:22:44.250Z,39.42
2022-12-16T17:25:04.817Z,41.28
2022-12-16T17:27:33.109Z,34.90
2022-12-16T17:29:53.283Z,39.38
2022-12-16T17:32:30.418Z,36.35
2022-12-16T17:34:50.800Z,42.13
2022-12-16T17:37:12.921Z,37.55
2022-12-16T17:39:33.280Z,43.90
2022-12-16T17:41:53.756Z,41.53
2022-12-16T17:44:14.263Z,44.53
2022-12-16T17:46:34.333Z,48.30
2022-12-16T17:48:54.283Z,45.35
2022-12-16T17:51:14.664Z,50.50
2022-12-16T17:53:35.492Z,42.05
2022-12-16T17:55:55.786Z,39.95
2022-12-16T17:58:16.099Z,38.38
2022-12-16T18:00:36.640Z,44.15
2022-12-16T18:02:56.984Z,39.50
2022-12-16T18:05:17.190Z,37.67
2022-12-16T18:07:37.274Z,35.17
2022-12-16T18:09:57.732Z,44.17
2022-12-16T18:12:18.238Z,40.58
2022-12-16T18:14:38.643Z,35.25
2022-12-16T18:16:58.588Z,37.92
2022-12-16T18:19:19.032Z,41.72
2022-12-16T18:21:39.502Z,34.95
2022-12-16T18:24:02.886Z,34.97
2022-12-16T18:26:26.347Z,32.60
2022-12-16T18:28:46.830Z,34.15
